Aérodrome :
LOGIN :

S'inscrire | Disclaimer

   EN    FR    IT 

 










Légende :    VFR   VFR Marginal   IFR   IFR Intensif   IFR Très Intensif
Visi : 
Plafond : 
>= 8 km
>= 3000ft
5 à 8 km
1000 à 3000 ft
1500m à 5 km
500 à 1000 ft
800 à 1500m
200 à 500 ft
< 800m
< 200 ft
Symboles :   Orages  Brouillard  Fortes neiges  Fortes précipitations  Vent > 20 kt
SIGMETs :   Divers  Orages  Givrage  Turbulence  Onde Orograph.  Cendres Volcan.






- Altitude de l'aérodrome : 1036 ft
- Code IATA : ERF


EDDE - Erfurt

DERNIER METAR :
  • 211350Z AUTO 05013KT 020V080 9999 OVC040 05/M02 Q1021 TEMPO 05015G25KT

METARs EXPIRÉS :
  • 211320Z AUTO 06013KT 9999 BKN036 OVC044 05/M03 Q1020 TEMPO 05015G25KT
  • 211250Z AUTO 04015KT 9999 BKN032 OVC039 05/M02 Q1020 TEMPO 05015G25KT
  • 211220Z AUTO 04015KT 010V070 9999 SCT028 OVC037 05/M01 Q1020 TEMPO 05015G25KT
  • 211150Z AUTO 05015KT 9999 FEW021 BKN033 OVC042 05/M02 Q1020 TEMPO 05015G25KT
  • 211120Z AUTO 05015KT 9999 SCT015 BKN035 OVC044 04/M00 Q1020 TEMPO 05015G25KT
  • 211050Z AUTO 05014KT 030V090 9999 SCT011 BKN023 BKN037 04/00 Q1020 TEMPO 05015G25KT
  • 211020Z AUTO 05014KT 030V090 9999 BKN011 BKN018 BKN030 03/01 Q1020 BECMG SCT020
  • 210950Z AUTO 05013KT 9999 -DZ BKN011 OVC017 03/01 Q1019
  • 210920Z AUTO 05014KT 9999 BKN007 OVC011 02/00 Q1019 BECMG 06015G25KT BKN011

TAF TAF EDDE
Valide du 21 à 12h jusqu'au 22 à 12h UTC


211100Z 2112/2212 05011G21KT 9999 BKN012
BECMG 2112/2114 SCT030
BECMG 2115/2118 05006KT
BECMG 2122/2201 BKN010
PROB30
TEMPO 2201/2206 2800 -SN BKN004
BECMG 2205/2208 SCT020



MET'MAP, la Météo Aéronautique d'un coup d'oeil ! - Copyright ORBIFLY Décembre 2007 - Disclaimer

ORBIFLY MET'MAP TEAM :

Programmation & Développement : Alexandra Zaïnal
Sur une idée originale de : Baudouin d'Aumeries
Soutien technique & logistique : Manuel Goepfert
Assistance : Marc-Olivier Méhu




SOURCES & CREDITS :

   NOAA